Bertopolis, Brazil
Current Conditions -  °F | °C
As of 6:00 PM on Thursday 23 Oct 2014 (Local Time) from SBPS Reporting Station
Overcast Overcast  
Wind Chill: 23°   Ceiling: 4000
Heat Index: 23°   Visibility: 6mi
Dew Point: 19°   Wind: 6mph
Humidity: 78%   Direction: 160°SSE
Pressure: 30.03"   Gusts: NA
Location:  17.06°S, 40.57°W
Report Text: SBPS 232000Z 16005KT 9999 OVC040 23/19 Q1017
Loading
Personal Weather Stations






























Interactive Weather Map
Tropical Storm Tracking
New forecast layout! Learn more

10-Day Weather Forecast

Advertisements
Track Severe Weather on mobile